Time;durP1;ratioP1;P1;durP2;ratioP2;P2;SDS_P1;SDS_P2;PMS_P1;PMS_P2;Temp;Humidity;BMP_temperature;BMP_pressure;BME280_temperature;BME280_humidity;BME280_pressure;Samples;Min_cycle;Max_cycle;Signal;HPM_P1;HPM_P2
2023/09/16 00:01:03;;;;;;;10.48;7.32;;;16.10;99.90;;;;;;4249069;27;20050;-79
2023/09/16 00:03:04;;;;;;;11.68;6.97;;;16.10;99.90;;;;;;4231019;28;20082;-80
2023/09/16 00:05:04;;;;;;;10.18;7.30;;;16.00;99.90;;;;;;4248717;27;20047;-79
2023/09/16 00:07:05;;;;;;;11.68;7.35;;;16.00;99.90;;;;;;4247439;27;20106;-80
2023/09/16 00:09:06;;;;;;;10.90;7.75;;;15.90;99.90;;;;;;4263284;27;20121;-80
2023/09/16 00:11:09;;;;;;;14.13;8.02;;;15.90;99.90;;;;;;4265955;27;20493;-80
2023/09/16 00:13:09;;;;;;;13.15;7.50;;;15.90;99.90;;;;;;4265824;27;20043;-80
2023/09/16 00:15:10;;;;;;;12.20;8.25;;;15.80;99.90;;;;;;4265509;27;20050;-80
2023/09/16 00:17:11;;;;;;;12.98;8.60;;;15.80;99.90;;;;;;4265744;27;20057;-79
2023/09/16 00:19:12;;;;;;;11.52;7.63;;;15.80;99.90;;;;;;4246886;27;20483;-80
2023/09/16 00:21:14;;;;;;;9.55;7.03;;;15.80;99.90;;;;;;4265395;27;20051;-80
2023/09/16 00:23:16;;;;;;;11.48;7.70;;;15.70;99.90;;;;;;4257608;27;20044;-80
2023/09/16 00:25:17;;;;;;;10.05;7.70;;;15.20;99.90;;;;;;4229393;28;20047;-79
2023/09/16 00:27:18;;;;;;;11.13;7.40;;;15.70;99.90;;;;;;4268543;27;20189;-79
2023/09/16 00:29:19;;;;;;;11.82;7.70;;;15.60;99.90;;;;;;4233272;28;20523;-79
2023/09/16 00:31:22;;;;;;;12.02;7.53;;;15.80;99.90;;;;;;4267341;27;20087;-79
2023/09/16 00:33:23;;;;;;;13.60;7.97;;;15.60;99.90;;;;;;4248470;27;20043;-79
2023/09/16 00:35:24;;;;;;;10.70;7.47;;;15.50;99.90;;;;;;4264980;27;20039;-79
2023/09/16 00:37:25;;;;;;;9.63;7.35;;;15.60;99.90;;;;;;4265560;27;20031;-79
2023/09/16 00:39:27;;;;;;;12.00;7.95;;;15.50;99.90;;;;;;4244537;27;20054;-79
2023/09/16 00:41:28;;;;;;;12.98;7.72;;;15.50;99.90;;;;;;4236195;27;20039;-80
2023/09/16 00:43:28;;;;;;;12.70;7.40;;;15.70;99.90;;;;;;4212889;28;20036;-80
2023/09/16 00:45:29;;;;;;;14.63;7.13;;;15.50;99.90;;;;;;4231364;28;20099;-79
2023/09/16 00:47:31;;;;;;;11.70;7.13;;;15.50;99.90;;;;;;4231197;28;20047;-79
2023/09/16 00:49:32;;;;;;;15.50;8.30;;;15.40;99.90;;;;;;4212875;28;20044;-79
2023/09/16 00:51:33;;;;;;;10.43;7.90;;;15.40;99.90;;;;;;4231274;28;20135;-79
2023/09/16 00:53:34;;;;;;;12.48;7.55;;;15.40;99.90;;;;;;4212746;28;20123;-79
2023/09/16 00:55:35;;;;;;;10.55;7.18;;;15.30;99.90;;;;;;4213714;28;20047;-80
2023/09/16 00:57:41;;;;;;;11.05;7.72;;;15.30;99.90;;;;;;4231219;28;20040;-80
2023/09/16 00:59:42;;;;;;;10.40;7.72;;;15.30;99.90;;;;;;4245001;27;20107;-80
2023/09/16 01:01:49;;;;;;;12.30;7.78;;;15.20;99.90;;;;;;4265319;27;20037;-79
2023/09/16 01:03:51;;;;;;;12.18;8.20;;;15.20;99.90;;;;;;4265377;27;20049;-80
2023/09/16 01:05:54;;;;;;;13.25;8.63;;;15.20;99.90;;;;;;4264578;27;20087;-80
2023/09/16 01:07:55;;;;;;;12.18;7.82;;;15.20;99.90;;;;;;4229634;28;20397;-79
2023/09/16 01:09:56;;;;;;;8.57;6.80;;;15.20;99.90;;;;;;4265290;27;20046;-80
2023/09/16 01:11:57;;;;;;;12.48;8.10;;;15.10;99.90;;;;;;4230417;28;20086;-80
2023/09/16 01:13:58;;;;;;;10.90;8.57;;;15.10;99.90;;;;;;4247312;28;20043;-80
2023/09/16 01:16:14;;;;;;;8.70;6.90;;;15.00;99.90;;;;;;4257466;27;20034;-80
2023/09/16 01:18:24;;;;;;;11.38;7.90;;;15.00;99.90;;;;;;4264689;27;20035;-80
2023/09/16 01:20:28;;;;;;;9.60;7.65;;;14.90;99.90;;;;;;4249555;27;20051;-80
2023/09/16 01:22:29;;;;;;;11.90;8.13;;;14.90;99.90;;;;;;4230254;28;20043;-80
2023/09/16 01:24:31;;;;;;;12.45;8.77;;;14.90;99.90;;;;;;4213021;28;20584;-79
2023/09/16 01:26:31;;;;;;;11.65;8.13;;;14.70;99.90;;;;;;4232342;28;20437;-79
2023/09/16 01:28:32;;;;;;;11.75;7.97;;;14.80;99.90;;;;;;4231143;28;20044;-79
2023/09/16 01:30:36;;;;;;;12.60;8.32;;;14.80;99.90;;;;;;4247104;28;20036;-79
2023/09/16 01:32:53;;;;;;;12.00;7.63;;;14.80;99.90;;;;;;4244688;27;20046;-80
2023/09/16 01:34:55;;;;;;;13.93;8.40;;;14.80;99.90;;;;;;4253061;27;20043;-80
2023/09/16 01:36:58;;;;;;;11.63;7.30;;;14.80;99.90;;;;;;4251237;27;20051;-80
2023/09/16 01:39:05;;;;;;;10.93;7.45;;;14.80;99.90;;;;;;4251224;27;20092;-80
2023/09/16 01:41:07;;;;;;;8.60;6.47;;;13.70;99.90;;;;;;4216170;28;20053;-80
2023/09/16 01:43:08;;;;;;;10.40;7.13;;;14.70;99.90;;;;;;4251224;27;20101;-80
2023/09/16 01:45:12;;;;;;;15.20;7.45;;;14.70;99.90;;;;;;4250413;27;20043;-79
2023/09/16 01:47:13;;;;;;;9.73;7.18;;;14.80;99.90;;;;;;4232783;28;20150;-80
2023/09/16 01:49:14;;;;;;;11.40;6.40;;;14.60;99.90;;;;;;4215771;28;20044;-80
2023/09/16 01:51:15;;;;;;;9.90;6.72;;;14.70;99.90;;;;;;4257482;27;20051;-80
2023/09/16 01:53:16;;;;;;;10.38;7.40;;;14.60;99.90;;;;;;4268238;27;20098;-80
2023/09/16 01:55:16;;;;;;;10.75;6.63;;;14.60;99.90;;;;;;4268265;27;20754;-80
2023/09/16 01:57:17;;;;;;;9.57;6.20;;;14.60;99.90;;;;;;4268106;27;20038;-80
2023/09/16 01:59:18;;;;;;;8.60;6.50;;;14.90;99.90;;;;;;4249133;27;20472;-80
2023/09/16 02:01:19;;;;;;;9.35;6.32;;;14.60;99.90;;;;;;4268163;27;20455;-80
2023/09/16 02:03:22;;;;;;;7.53;6.15;;;14.50;99.90;;;;;;4268006;27;20077;-80
2023/09/16 02:05:24;;;;;;;7.00;4.80;;;14.50;99.90;;;;;;4249264;27;20174;-80
2023/09/16 02:07:24;;;;;;;7.95;5.78;;;14.40;99.90;;;;;;4259212;27;20092;-79
2023/09/16 02:09:25;;;;;;;6.45;5.30;;;14.40;99.90;;;;;;4268030;27;20043;-80
2023/09/16 02:11:26;;;;;;;6.53;5.28;;;14.30;99.90;;;;;;4267885;27;20039;-80
2023/09/16 02:13:27;;;;;;;6.38;5.03;;;14.30;99.90;;;;;;4249596;27;20051;-80
2023/09/16 02:15:28;;;;;;;6.95;5.10;;;14.30;99.90;;;;;;4267535;27;20054;-79
2023/09/16 02:17:29;;;;;;;6.25;5.03;;;14.20;99.90;;;;;;4267245;27;20043;-80
2023/09/16 02:19:32;;;;;;;6.10;4.40;;;14.20;99.90;;;;;;4249256;27;20494;-79
2023/09/16 02:21:33;;;;;;;7.63;4.70;;;14.20;99.90;;;;;;4249838;27;20507;-79
2023/09/16 02:23:34;;;;;;;8.00;5.30;;;14.20;99.90;;;;;;4242977;27;20055;-80
2023/09/16 02:25:35;;;;;;;5.25;4.43;;;14.20;99.90;;;;;;4225678;28;20508;-80
2023/09/16 02:27:36;;;;;;;5.38;4.60;;;14.20;99.90;;;;;;4250140;27;20046;-80
2023/09/16 02:29:36;;;;;;;6.80;4.07;;;14.10;99.90;;;;;;4249896;27;20047;-80
2023/09/16 02:31:37;;;;;;;5.20;4.18;;;14.10;99.90;;;;;;4250138;27;20491;-80
2023/09/16 02:33:38;;;;;;;5.75;3.80;;;14.10;99.90;;;;;;4250231;27;20104;-80
2023/09/16 02:35:39;;;;;;;4.90;4.15;;;14.10;99.90;;;;;;4250257;27;20050;-80
2023/09/16 02:37:40;;;;;;;6.95;4.53;;;14.20;99.90;;;;;;4250131;27;20054;-80
2023/09/16 02:39:41;;;;;;;9.05;5.07;;;14.00;99.90;;;;;;4232005;28;20048;-80
2023/09/16 02:41:42;;;;;;;5.32;4.60;;;14.00;99.90;;;;;;4252530;27;20490;-80
2023/09/16 02:43:47;;;;;;;6.45;4.93;;;14.00;99.90;;;;;;4250331;27;20096;-80
2023/09/16 02:45:47;;;;;;;7.38;4.53;;;13.90;99.90;;;;;;4231904;28;20484;-79
2023/09/16 02:47:48;;;;;;;6.25;4.32;;;13.90;99.90;;;;;;4232057;28;20051;-80
2023/09/16 02:49:49;;;;;;;5.15;4.53;;;13.90;99.90;;;;;;4215240;28;20101;-80
2023/09/16 02:51:51;;;;;;;5.03;4.05;;;13.90;99.90;;;;;;4263875;27;20414;-79
2023/09/16 02:53:54;;;;;;;4.72;4.03;;;13.80;99.90;;;;;;4250685;28;20050;-79
2023/09/16 02:55:56;;;;;;;5.70;4.28;;;13.80;99.90;;;;;;4255748;27;20089;-80
2023/09/16 02:57:56;;;;;;;5.03;3.95;;;13.80;99.90;;;;;;4232326;28;20052;-80
2023/09/16 02:59:57;;;;;;;5.63;4.53;;;13.80;99.90;;;;;;4251266;27;20515;-80
2023/09/16 03:02:00;;;;;;;5.60;4.65;;;13.80;99.90;;;;;;4252349;27;20054;-80
2023/09/16 03:04:08;;;;;;;6.55;4.35;;;13.80;99.90;;;;;;4219630;28;20044;-79
2023/09/16 03:06:18;;;;;;;5.47;4.20;;;15.10;99.90;;;;;;4253326;27;20039;-80
2023/09/16 03:08:39;;;;;;;6.25;3.85;;;13.80;99.90;;;;;;4253929;27;20126;-80
2023/09/16 03:10:47;;;;;;;4.30;3.58;;;13.70;99.90;;;;;;4245393;28;20036;-80
2023/09/16 03:13:00;;;;;;;4.72;3.90;;;13.80;99.90;;;;;;4236311;28;20581;-81
2023/09/16 03:15:10;;;;;;;4.25;3.50;;;13.70;99.90;;;;;;4235937;28;20047;-80
2023/09/16 03:17:10;;;;;;;;;;;13.00;99.90;;;;;;4219472;28;20056;-80
2023/09/16 03:19:13;;;;;;;10.73;5.00;;;13.60;99.90;;;;;;4241955;28;19929;-80
2023/09/16 03:21:17;;;;;;;6.60;4.93;;;13.60;99.90;;;;;;4244271;27;20043;-79
2023/09/16 03:23:18;;;;;;;7.40;4.88;;;13.60;99.90;;;;;;4252668;28;20071;-80
2023/09/16 03:25:19;;;;;;;6.88;5.05;;;13.60;99.90;;;;;;4235167;28;20027;-80
2023/09/16 03:27:21;;;;;;;6.90;4.85;;;13.60;99.90;;;;;;4236062;28;20044;-80
2023/09/16 03:29:21;;;;;;;6.55;4.85;;;13.60;99.90;;;;;;4236973;28;20050;-80
2023/09/16 03:31:22;;;;;;;7.05;5.25;;;13.50;99.90;;;;;;4264598;27;20038;-80
2023/09/16 03:33:23;;;;;;;7.65;5.75;;;13.60;99.90;;;;;;4286864;27;20049;-80
2023/09/16 03:35:31;;;;;;;8.73;5.40;;;13.60;99.90;;;;;;4286117;27;20046;-80
2023/09/16 03:37:31;;;;;;;10.40;6.22;;;13.60;99.90;;;;;;4268998;27;20039;-81
2023/09/16 03:39:33;;;;;;;9.82;6.25;;;13.50;99.90;;;;;;4260451;27;20458;-80
2023/09/16 03:41:34;;;;;;;8.70;6.05;;;13.50;99.90;;;;;;4231094;28;20043;-80
2023/09/16 03:43:35;;;;;;;9.55;5.72;;;13.50;99.90;;;;;;4266788;27;20039;-80
2023/09/16 03:45:36;;;;;;;13.18;7.25;;;13.50;99.90;;;;;;4247349;27;20031;-80
2023/09/16 03:47:36;;;;;;;7.97;6.28;;;13.50;99.90;;;;;;4267253;27;20509;-80
2023/09/16 03:49:37;;;;;;;9.80;7.25;;;13.40;99.90;;;;;;4266565;27;20462;-80
2023/09/16 03:51:39;;;;;;;9.20;6.78;;;13.50;99.90;;;;;;4247411;27;20043;-80
2023/09/16 03:53:40;;;;;;;10.75;6.13;;;13.50;99.90;;;;;;4266300;27;20107;-80
2023/09/16 03:55:40;;;;;;;9.85;6.60;;;13.40;99.90;;;;;;4261341;27;20440;-81
2023/09/16 03:57:41;;;;;;;10.15;6.53;;;13.40;99.90;;;;;;4237756;27;20036;-81
2023/09/16 03:59:42;;;;;;;7.70;5.65;;;13.40;99.90;;;;;;4231912;28;20089;-81
2023/09/16 04:01:43;;;;;;;9.77;6.38;;;13.40;99.90;;;;;;4217650;28;20488;-81
2023/09/16 04:03:44;;;;;;;7.93;5.43;;;13.30;99.90;;;;;;4248275;27;20099;-81
2023/09/16 04:05:44;;;;;;;6.00;4.57;;;12.80;99.90;;;;;;4230655;28;20048;-80
2023/09/16 04:07:46;;;;;;;6.00;4.50;;;13.20;99.90;;;;;;4214168;28;20043;-80
2023/09/16 04:09:48;;;;;;;6.93;4.70;;;13.20;99.90;;;;;;4248855;27;20502;-80
2023/09/16 04:11:49;;;;;;;5.43;4.05;;;13.60;99.90;;;;;;4248712;27;20050;-80
2023/09/16 04:13:50;;;;;;;6.35;4.25;;;13.20;99.90;;;;;;4245818;27;20035;-80
2023/09/16 04:15:51;;;;;;;5.22;3.40;;;13.10;99.90;;;;;;4213477;28;20048;-80
2023/09/16 04:17:52;;;;;;;4.07;3.40;;;13.20;99.90;;;;;;4213653;28;20093;-80
2023/09/16 04:19:52;;;;;;;3.65;3.05;;;13.00;99.90;;;;;;4236025;27;20093;-81
2023/09/16 04:21:54;;;;;;;3.92;3.00;;;13.00;99.90;;;;;;4265476;27;20070;-80
2023/09/16 04:23:55;;;;;;;3.17;2.88;;;13.00;99.90;;;;;;4265843;27;20039;-80
2023/09/16 04:25:57;;;;;;;3.63;2.92;;;12.90;99.90;;;;;;4265587;27;20167;-80
2023/09/16 04:27:58;;;;;;;4.47;3.30;;;12.90;99.90;;;;;;4265330;27;20042;-80
2023/09/16 04:29:59;;;;;;;4.80;3.45;;;13.00;99.90;;;;;;4265460;27;20095;-81
2023/09/16 04:31:59;;;;;;;5.10;3.83;;;12.90;99.90;;;;;;4265730;27;20487;-80
2023/09/16 04:34:00;;;;;;;4.72;3.90;;;12.90;99.90;;;;;;4265641;27;20038;-80
2023/09/16 04:36:03;;;;;;;6.88;4.25;;;12.90;99.90;;;;;;4265264;27;20098;-80
2023/09/16 04:38:05;;;;;;;8.95;5.35;;;12.90;99.90;;;;;;4257589;27;20038;-80
2023/09/16 04:40:10;;;;;;;8.32;5.90;;;12.90;99.90;;;;;;4264861;27;20121;-80
2023/09/16 04:42:11;;;;;;;8.65;5.63;;;12.90;99.90;;;;;;4265712;27;20086;-80
2023/09/16 04:44:13;;;;;;;9.10;6.15;;;12.90;99.90;;;;;;4247046;27;20130;-80
2023/09/16 04:46:14;;;;;;;10.70;5.93;;;13.00;99.90;;;;;;4265365;27;20097;-80
2023/09/16 04:48:15;;;;;;;8.05;5.75;;;12.90;99.90;;;;;;4265355;27;20495;-80
2023/09/16 04:50:16;;;;;;;7.50;6.13;;;13.00;99.90;;;;;;4261024;27;20047;-80
2023/09/16 04:52:17;;;;;;;7.05;5.55;;;13.00;99.90;;;;;;4230857;28;20077;-80
2023/09/16 04:54:18;;;;;;;7.82;5.95;;;12.90;99.90;;;;;;4231311;28;20089;-80
2023/09/16 04:56:20;;;;;;;11.77;6.13;;;12.90;99.90;;;;;;4257688;27;20047;-80
2023/09/16 04:58:23;;;;;;;7.97;6.22;;;13.00;99.90;;;;;;4230006;28;20558;-80
2023/09/16 05:00:24;;;;;;;10.43;6.15;;;12.90;99.90;;;;;;4227881;28;20118;-80
2023/09/16 05:02:25;;;;;;;7.72;6.03;;;12.90;99.90;;;;;;4244295;28;20087;-80
2023/09/16 05:04:26;;;;;;;10.88;6.97;;;12.90;99.90;;;;;;4264914;27;20483;-81
2023/09/16 05:06:27;;;;;;;12.25;7.22;;;12.90;99.90;;;;;;4265632;27;20046;-80
2023/09/16 05:08:28;;;;;;;12.73;6.90;;;12.70;99.90;;;;;;4250341;27;20510;-80
2023/09/16 05:10:28;;;;;;;10.13;7.50;;;12.90;99.90;;;;;;4268918;27;20470;-80
2023/09/16 05:12:29;;;;;;;10.20;7.60;;;12.80;99.90;;;;;;4268664;27;20049;-80
2023/09/16 05:14:30;;;;;;;11.23;7.03;;;12.90;99.90;;;;;;4268569;27;20042;-80
2023/09/16 05:16:31;;;;;;;9.65;6.30;;;12.80;99.90;;;;;;4233441;27;20196;-80
2023/09/16 05:18:31;;;;;;;9.65;6.93;;;12.80;99.90;;;;;;4233386;27;20089;-80
2023/09/16 05:20:32;;;;;;;10.75;7.60;;;12.80;99.90;;;;;;4268313;27;20041;-80
2023/09/16 05:22:33;;;;;;;9.30;5.80;;;12.70;99.90;;;;;;4246040;27;20450;-80
2023/09/16 05:24:34;;;;;;;10.32;6.90;;;12.80;99.90;;;;;;4215612;28;20139;-80
2023/09/16 05:26:35;;;;;;;8.70;6.20;;;12.80;99.90;;;;;;4234470;28;20097;-80
2023/09/16 05:28:36;;;;;;;10.48;6.57;;;12.70;99.90;;;;;;4234499;28;20046;-80
2023/09/16 05:30:36;;;;;;;11.38;7.68;;;12.70;99.90;;;;;;4234497;28;20040;-80
2023/09/16 05:32:37;;;;;;;9.70;6.78;;;12.80;99.90;;;;;;4215938;28;20138;-81
2023/09/16 05:34:38;;;;;;;9.52;6.95;;;12.90;99.90;;;;;;4232814;27;20105;-82
2023/09/16 05:36:39;;;;;;;11.55;8.27;;;12.90;99.90;;;;;;4240129;27;20054;-81
2023/09/16 05:38:40;;;;;;;15.68;9.40;;;12.90;99.90;;;;;;4250409;27;20079;-82
2023/09/16 05:40:41;;;;;;;12.80;9.13;;;12.90;99.90;;;;;;4267475;27;20051;-82
2023/09/16 05:42:42;;;;;;;11.88;7.95;;;12.90;99.90;;;;;;4268196;27;20054;-81
2023/09/16 05:44:44;;;;;;;11.07;8.05;;;12.90;99.90;;;;;;4268017;27;20070;-82
2023/09/16 05:46:44;;;;;;;13.50;8.15;;;12.90;99.90;;;;;;4249975;27;20479;-82
2023/09/16 05:48:45;;;;;;;13.70;7.88;;;12.90;99.90;;;;;;4267940;27;20164;-82
2023/09/16 05:50:56;;;;;;;16.05;8.40;;;12.90;99.90;;;;;;4267499;27;20079;-81
2023/09/16 05:52:57;;;;;;;10.60;7.32;;;12.90;99.90;;;;;;4249096;27;20043;-82
2023/09/16 05:54:58;;;;;;;13.25;8.10;;;12.90;99.90;;;;;;4250651;27;20139;-81
2023/09/16 05:56:58;;;;;;;11.68;7.60;;;13.10;99.90;;;;;;4232423;28;20511;-82
2023/09/16 05:58:59;;;;;;;12.75;7.53;;;13.00;99.90;;;;;;4232058;28;20488;-81
2023/09/16 06:01:00;;;;;;;12.30;8.20;;;13.00;99.90;;;;;;4248496;27;20262;-81
2023/09/16 06:03:01;;;;;;;11.80;8.38;;;13.00;99.90;;;;;;4213551;28;20496;-81
2023/09/16 06:05:02;;;;;;;12.10;8.15;;;13.00;99.90;;;;;;4232099;28;20164;-81
2023/09/16 06:07:02;;;;;;;12.38;7.47;;;13.00;99.90;;;;;;4247158;27;20066;-81
2023/09/16 06:09:04;;;;;;;12.48;8.15;;;13.00;99.90;;;;;;4246088;27;20050;-81
2023/09/16 06:11:04;;;;;;;12.32;8.38;;;13.20;99.90;;;;;;4215252;28;20494;-81
2023/09/16 06:13:05;;;;;;;12.80;8.77;;;13.20;99.90;;;;;;4240898;27;20039;-81
2023/09/16 06:15:07;;;;;;;15.68;9.27;;;13.10;99.90;;;;;;4228734;28;20040;-81
2023/09/16 06:17:08;;;;;;;13.88;8.80;;;13.00;99.90;;;;;;4250070;27;20058;-82
2023/09/16 06:19:09;;;;;;;14.15;8.95;;;13.00;99.90;;;;;;4252613;27;20027;-81
2023/09/16 06:21:10;;;;;;;15.40;9.65;;;13.10;99.90;;;;;;4232215;28;20098;-81
2023/09/16 06:23:10;;;;;;;15.00;10.73;;;13.20;99.90;;;;;;4250119;27;20047;-82
2023/09/16 06:25:11;;;;;;;14.90;10.30;;;13.20;99.90;;;;;;4250170;27;20039;-82
2023/09/16 06:27:14;;;;;;;13.15;10.00;;;13.20;99.90;;;;;;4248039;27;20130;-81
2023/09/16 06:29:14;;;;;;;16.08;9.52;;;13.30;99.90;;;;;;4230228;27;20119;-81
2023/09/16 06:31:16;;;;;;;13.38;9.05;;;13.30;99.90;;;;;;4251523;27;20476;-81
2023/09/16 06:33:17;;;;;;;15.80;9.55;;;13.40;99.90;;;;;;4229046;28;20081;-82
2023/09/16 06:35:18;;;;;;;16.00;11.45;;;13.50;99.90;;;;;;4231187;28;20047;-81
2023/09/16 06:37:18;;;;;;;15.57;11.00;;;13.50;99.90;;;;;;4250085;27;20043;-81
2023/09/16 06:39:19;;;;;;;18.67;11.20;;;13.60;99.90;;;;;;4249562;27;20149;-80
2023/09/16 06:41:20;;;;;;;17.55;12.75;;;13.70;99.90;;;;;;4214651;28;20481;-81
2023/09/16 06:43:23;;;;;;;21.33;12.65;;;13.70;99.90;;;;;;4248198;27;20039;-80
2023/09/16 06:45:23;;;;;;;20.63;12.45;;;13.80;99.90;;;;;;4231368;28;20053;-80
2023/09/16 06:47:27;;;;;;;17.75;12.57;;;14.00;99.90;;;;;;4249958;27;20043;-83
2023/09/16 06:49:28;;;;;;;18.13;11.50;;;14.00;99.90;;;;;;4250168;27;20380;-84
2023/09/16 06:51:30;;;;;;;20.83;12.77;;;14.10;99.90;;;;;;4231516;28;20082;-84
2023/09/16 06:53:33;;;;;;;17.08;11.23;;;14.20;99.90;;;;;;4250718;27;20047;-84
2023/09/16 06:55:34;;;;;;;15.60;12.10;;;14.30;99.90;;;;;;4214869;28;20056;-84
2023/09/16 06:57:35;;;;;;;17.35;12.13;;;14.40;99.90;;;;;;4250144;27;20047;-84
2023/09/16 06:59:35;;;;;;;17.52;11.57;;;14.70;99.90;;;;;;4232380;28;20538;-84
2023/09/16 07:01:36;;;;;;;17.75;12.68;;;14.70;99.90;;;;;;4231690;28;20392;-83
2023/09/16 07:03:37;;;;;;;17.45;13.38;;;14.90;99.90;;;;;;4232513;28;20036;-84
2023/09/16 07:05:38;;;;;;;18.17;11.73;;;15.00;99.90;;;;;;4231802;28;20177;-84
2023/09/16 07:07:38;;;;;;;17.88;11.55;;;15.10;99.90;;;;;;4231917;28;20540;-84
2023/09/16 07:09:40;;;;;;;19.23;12.15;;;15.20;99.90;;;;;;4249823;27;20114;-84
2023/09/16 07:11:40;;;;;;;24.25;11.75;;;15.40;99.90;;;;;;4248910;27;20104;-84
2023/09/16 07:13:41;;;;;;;15.57;11.40;;;15.50;99.90;;;;;;4249581;27;20440;-85
2023/09/16 07:15:42;;;;;;;16.23;12.07;;;15.70;99.90;;;;;;4214727;28;20055;-85
2023/09/16 07:17:43;;;;;;;18.42;11.15;;;15.80;99.90;;;;;;4230896;28;20046;-85
2023/09/16 07:19:44;;;;;;;17.85;11.80;;;15.80;99.90;;;;;;4249652;27;20047;-84
2023/09/16 07:21:45;;;;;;;18.20;11.90;;;15.90;99.90;;;;;;4249901;27;20047;-85
2023/09/16 07:23:46;;;;;;;17.58;11.52;;;16.00;99.90;;;;;;4249434;27;20031;-85
2023/09/16 07:25:55;;;;;;;15.75;11.60;;;16.10;99.90;;;;;;4214975;28;20189;-85
2023/09/16 07:27:56;;;;;;;14.90;10.40;;;16.20;99.90;;;;;;4249484;27;20050;-85
2023/09/16 07:29:58;;;;;;;14.80;11.98;;;16.30;99.90;;;;;;4229864;28;20039;-85
2023/09/16 07:31:59;;;;;;;16.67;11.23;;;16.50;99.90;;;;;;4230696;28;20082;-85
2023/09/16 07:34:00;;;;;;;17.83;11.38;;;16.60;99.90;;;;;;4248311;27;20039;-85
2023/09/16 07:36:00;;;;;;;17.02;11.30;;;16.80;99.90;;;;;;4258066;27;20159;-83
2023/09/16 07:38:01;;;;;;;16.75;10.80;;;15.80;99.90;;;;;;4266248;27;20486;-84
2023/09/16 07:40:03;;;;;;;16.05;10.23;;;17.10;99.90;;;;;;4247992;27;20046;-83
2023/09/16 07:42:04;;;;;;;18.13;10.85;;;;;;;;;;4241808;27;20035;-84
2023/09/16 07:44:05;;;;;;;14.65;9.55;;;;;;;;;;4213690;28;20483;-83
2023/09/16 07:46:06;;;;;;;15.15;9.77;;;;;;;;;;4249219;27;20444;-83
2023/09/16 07:48:09;;;;;;;17.52;9.60;;;;;;;;;;4249156;27;20092;-83
2023/09/16 07:50:10;;;;;;;14.43;8.82;;;;;;;;;;4230299;28;20060;-83
2023/09/16 07:52:11;;;;;;;15.63;8.80;;;;;;;;;;4230569;28;20495;-83
2023/09/16 07:54:15;;;;;;;14.55;8.95;;;18.10;99.90;;;;;;4231390;28;20403;-84
2023/09/16 07:56:18;;;;;;;15.88;9.55;;;18.80;99.90;;;;;;4228929;28;20043;-83
2023/09/16 07:58:19;;;;;;;13.77;8.30;;;;;;;;;;4230130;28;20411;-83
2023/09/16 08:00:20;;;;;;;12.85;7.90;;;18.90;99.90;;;;;;4230910;28;20042;-84
2023/09/16 08:02:21;;;;;;;15.35;9.27;;;;;;;;;;4223637;28;20075;-83
2023/09/16 08:04:22;;;;;;;13.85;9.18;;;19.30;99.90;;;;;;4231818;28;20106;-84
2023/09/16 08:06:23;;;;;;;16.77;9.43;;;;;;;;;;4231657;28;20074;-84
2023/09/16 08:08:24;;;;;;;13.45;8.48;;;;;;;;;;4230391;28;20534;-83
2023/09/16 08:10:25;;;;;;;13.65;9.55;;;;;;;;;;4229696;28;20043;-84
2023/09/16 08:12:26;;;;;;;12.23;8.43;;;;;;;;;;4230331;28;20047;-83
2023/09/16 08:14:27;;;;;;;13.25;8.00;;;;;;;;;;4231541;28;20114;-84
2023/09/16 08:16:29;;;;;;;15.23;8.18;;;;;;;;;;4231675;28;20047;-84
2023/09/16 08:18:30;;;;;;;14.73;8.98;;;;;;;;;;4231445;28;20058;-84
2023/09/16 08:20:31;;;;;;;11.77;7.75;;;;;;;;;;4230839;28;20135;-84
2023/09/16 08:22:32;;;;;;;12.18;8.38;;;;;;;;;;4231286;28;20115;-85
2023/09/16 08:24:36;;;;;;;11.98;8.00;;;;;;;;;;4213609;28;20106;-82
2023/09/16 08:26:37;;;;;;;11.93;7.50;;;;;;;;;;4230215;28;20057;-80
2023/09/16 08:28:39;;;;;;;11.05;7.55;;;;;;;;;;4231336;28;20067;-80
2023/09/16 08:30:40;;;;;;;11.57;7.97;;;;;;;;;;4231179;28;20098;-82
2023/09/16 08:32:41;;;;;;;12.70;7.55;;;;;;;;;;4230216;28;20066;-81
2023/09/16 08:34:42;;;;;;;13.82;7.80;;;;;;;;;;4230973;28;20089;-81
2023/09/16 08:36:43;;;;;;;11.32;7.60;;;;;;;;;;4229919;28;20063;-81
2023/09/16 08:38:44;;;;;;;12.80;8.00;;;;;;;;;;4211296;28;20050;-82
2023/09/16 08:40:47;;;;;;;12.30;7.38;;;;;;;;;;4231068;28;20044;-81
2023/09/16 08:43:05;;;;;;;16.85;7.15;;;;;;;;;;4226158;28;20051;-81
2023/09/16 08:45:10;;;;;;;10.52;6.60;;;20.20;99.90;;;;;;4229150;28;20118;-81
2023/09/16 08:47:18;;;;;;;12.95;7.28;;;27.70;99.90;;;;;;4214040;28;20508;-81
2023/09/16 08:49:22;;;;;;;10.88;6.95;;;;;;;;;;4230873;28;20591;-81
2023/09/16 08:51:23;;;;;;;9.88;6.70;;;;;;;;;;4245411;27;20047;-82
2023/09/16 08:53:29;;;;;;;11.25;6.15;;;26.80;99.90;;;;;;4229548;28;20132;-82
2023/09/16 08:55:32;;;;;;;9.68;6.85;;;28.10;99.90;;;;;;4241935;27;20063;-83
2023/09/16 08:57:34;;;;;;;9.70;5.90;;;28.40;99.90;;;;;;4229638;28;20042;-82
2023/09/16 08:59:36;;;;;;;10.30;6.22;;;28.70;99.90;;;;;;4247986;28;20031;-81
2023/09/16 09:01:37;;;;;;;9.07;5.93;;;29.00;99.90;;;;;;4229589;28;20588;-82
2023/09/16 09:03:37;;;;;;;9.32;5.68;;;28.40;99.90;;;;;;4248472;28;20088;-82
2023/09/16 09:05:38;;;;;;;10.82;6.20;;;29.30;99.90;;;;;;4248454;28;20070;-82
2023/09/16 09:07:41;;;;;;;7.28;5.00;;;29.60;99.90;;;;;;4247735;28;20136;-82
2023/09/16 09:09:42;;;;;;;8.65;5.47;;;29.90;99.90;;;;;;4247978;28;20043;-82
2023/09/16 09:11:43;;;;;;;8.68;6.03;;;29.90;99.90;;;;;;4229641;28;20551;-82
2023/09/16 09:13:48;;;;;;;9.48;5.50;;;30.10;99.90;;;;;;4242979;28;20051;-82
2023/09/16 09:15:51;;;;;;;8.90;5.15;;;30.30;99.90;;;;;;4248506;27;20043;-82
2023/09/16 09:17:56;;;;;;;8.63;4.75;;;30.40;99.90;;;;;;4228925;28;20039;-82
2023/09/16 09:19:57;;;;;;;9.05;5.00;;;30.60;99.00;;;;;;4229174;28;20047;-82
2023/09/16 09:21:59;;;;;;;11.38;5.68;;;30.80;99.30;;;;;;4247487;28;20376;-81
2023/09/16 09:24:00;;;;;;;11.00;5.40;;;30.80;98.80;;;;;;4229391;28;20636;-82
2023/09/16 09:26:01;;;;;;;8.00;4.80;;;30.70;98.30;;;;;;4229348;28;20047;-82
2023/09/16 09:28:03;;;;;;;7.75;5.40;;;30.90;98.30;;;;;;4247459;28;20036;-82
2023/09/16 09:30:04;;;;;;;8.98;5.28;;;31.00;98.00;;;;;;4247515;28;20383;-81
2023/09/16 09:32:05;;;;;;;8.45;4.82;;;31.20;98.00;;;;;;4229249;28;20145;-81
2023/09/16 09:34:19;;;;;;;9.00;4.65;;;31.30;97.70;;;;;;4229076;28;20055;-82
2023/09/16 09:36:21;;;;;;;7.63;4.68;;;;;;;;;;4247211;28;20047;-81
2023/09/16 09:38:22;;;;;;;7.45;4.75;;;;;;;;;;4229267;28;20136;-82
2023/09/16 09:40:24;;;;;;;7.38;4.72;;;;;;;;;;4247532;28;20093;-82
2023/09/16 09:42:26;;;;;;;6.40;4.22;;;;;;;;;;4228183;28;20115;-81
2023/09/16 09:44:27;;;;;;;7.10;4.72;;;;;;;;;;4242972;27;20071;-81
2023/09/16 09:46:29;;;;;;;10.23;5.22;;;;;;;;;;4212350;28;20048;-82
2023/09/16 09:48:31;;;;;;;7.60;4.45;;;;;;;;;;4229004;28;20051;-81
2023/09/16 09:50:32;;;;;;;6.78;4.00;;;;;;;;;;4228708;28;20052;-82
2023/09/16 09:52:34;;;;;;;9.48;4.50;;;;;;;;;;4230442;28;20055;-81
2023/09/16 09:54:35;;;;;;;7.18;4.35;;;;;;;;;;4231226;28;20050;-81
2023/09/16 09:56:37;;;;;;;5.70;3.80;;;;;;;;;;4232142;28;20048;-82
2023/09/16 09:58:38;;;;;;;5.78;4.50;;;;;;;;;;4233489;28;20047;-82
2023/09/16 10:00:46;;;;;;;6.88;3.83;;;;;;;;;;4221870;28;20074;-82
2023/09/16 10:02:48;;;;;;;5.47;3.65;;;;;;;;;;4228830;28;20838;-82
2023/09/16 10:04:49;;;;;;;6.32;4.10;;;;;;;;;;4231957;28;20047;-81
2023/09/16 10:06:51;;;;;;;10.55;3.90;;;;;;;;;;4231426;28;20103;-82
2023/09/16 10:08:53;;;;;;;5.88;4.07;;;;;;;;;;4230510;28;20172;-82
2023/09/16 10:10:55;;;;;;;4.72;3.40;;;;;;;;;;4233195;28;20036;-82
2023/09/16 10:12:56;;;;;;;5.78;3.30;;;;;;;;;;4233322;28;20044;-82
2023/09/16 10:14:58;;;;;;;6.18;3.35;;;;;;;;;;4227785;28;20086;-83
2023/09/16 10:17:02;;;;;;;5.70;2.92;;;;;;;;;;4232877;28;20040;-82
2023/09/16 10:19:03;;;;;;;7.68;3.92;;;;;;;;;;4232927;28;20067;-82
2023/09/16 10:21:07;;;;;;;6.00;3.67;;;;;;;;;;4220479;28;20085;-82
2023/09/16 10:23:09;;;;;;;4.07;2.90;;;;;;;;;;4232584;28;20051;-83
2023/09/16 10:25:13;;;;;;;5.30;3.50;;;;;;;;;;4216095;28;20044;-82
2023/09/16 10:27:19;;;;;;;7.28;3.35;;;;;;;;;;4233509;28;20054;-82
2023/09/16 10:29:21;;;;;;;7.05;3.58;;;;;;;;;;4232506;28;20052;-83
2023/09/16 10:31:23;;;;;;;6.93;3.40;;;;;;;;;;4233246;28;20039;-83
2023/09/16 10:33:24;;;;;;;4.78;2.92;;;;;;;;;;4233391;28;20504;-81
2023/09/16 10:35:26;;;;;;;6.95;3.35;;;31.50;96.40;;;;;;4233359;28;20071;-83
2023/09/16 10:37:27;;;;;;;6.75;3.72;;;32.00;90.80;;;;;;4232805;28;20050;-82
2023/09/16 10:39:28;;;;;;;4.55;3.80;;;;;;;;;;4231048;27;20056;-82
2023/09/16 10:41:30;;;;;;;6.93;3.47;;;;;;;;;;4231659;28;20043;-82
2023/09/16 10:43:31;;;;;;;4.65;3.20;;;;;;;;;;4215195;28;20048;-82
2023/09/16 10:45:33;;;;;;;5.78;3.00;;;;;;;;;;4233267;28;20047;-82